sensor_id;sensor_type;location;lat;lon;timestamp;temperature;humidity
25622;DHT22;13487;39.360;22.962;2023-02-11T00:00:16;3.50;99.90
25622;DHT22;13487;39.360;22.962;2023-02-11T00:02:42;3.50;99.90
25622;DHT22;13487;39.360;22.962;2023-02-11T00:05:08;3.50;99.90
25622;DHT22;13487;39.360;22.962;2023-02-11T00:07:34;3.40;99.90
25622;DHT22;13487;39.360;22.962;2023-02-11T00:10:00;3.40;99.90
25622;DHT22;13487;39.360;22.962;2023-02-11T00:12:29;3.40;99.90
25622;DHT22;13487;39.360;22.962;2023-02-11T00:14:55;3.50;99.90
25622;DHT22;13487;39.360;22.962;2023-02-11T00:17:21;3.40;99.90
25622;DHT22;13487;39.360;22.962;2023-02-11T00:19:50;3.50;99.90
25622;DHT22;13487;39.360;22.962;2023-02-11T00:22:16;3.60;99.90
25622;DHT22;13487;39.360;22.962;2023-02-11T00:24:42;3.70;99.90
25622;DHT22;13487;39.360;22.962;2023-02-11T00:27:08;3.70;99.90
25622;DHT22;13487;39.360;22.962;2023-02-11T00:29:34;3.70;99.90
25622;DHT22;13487;39.360;22.962;2023-02-11T00:32:00;3.70;99.90
25622;DHT22;13487;39.360;22.962;2023-02-11T00:34:33;3.70;99.90
25622;DHT22;13487;39.360;22.962;2023-02-11T00:36:59;3.70;99.90
25622;DHT22;13487;39.360;22.962;2023-02-11T00:39:25;3.70;99.90
25622;DHT22;13487;39.360;22.962;2023-02-11T00:41:51;3.70;99.90
25622;DHT22;13487;39.360;22.962;2023-02-11T00:44:17;3.60;99.90
25622;DHT22;13487;39.360;22.962;2023-02-11T00:46:42;3.60;99.90
25622;DHT22;13487;39.360;22.962;2023-02-11T00:49:08;3.60;99.90
25622;DHT22;13487;39.360;22.962;2023-02-11T00:51:34;3.60;99.90
25622;DHT22;13487;39.360;22.962;2023-02-11T00:54:00;3.50;99.90
25622;DHT22;13487;39.360;22.962;2023-02-11T00:56:26;3.50;99.90
25622;DHT22;13487;39.360;22.962;2023-02-11T00:58:51;3.50;99.90
25622;DHT22;13487;39.360;22.962;2023-02-11T01:01:18;3.60;99.90
25622;DHT22;13487;39.360;22.962;2023-02-11T01:03:44;3.50;99.90
25622;DHT22;13487;39.360;22.962;2023-02-11T01:06:10;3.50;99.90
25622;DHT22;13487;39.360;22.962;2023-02-11T01:08:37;3.50;99.90
25622;DHT22;13487;39.360;22.962;2023-02-11T01:11:07;3.50;99.90
25622;DHT22;13487;39.360;22.962;2023-02-11T01:13:35;3.50;99.90
25622;DHT22;13487;39.360;22.962;2023-02-11T01:16:06;3.50;99.90
25622;DHT22;13487;39.360;22.962;2023-02-11T01:18:32;3.50;99.90
25622;DHT22;13487;39.360;22.962;2023-02-11T01:20:58;3.50;99.90
25622;DHT22;13487;39.360;22.962;2023-02-11T01:23:24;3.50;99.90
25622;DHT22;13487;39.360;22.962;2023-02-11T01:25:50;3.50;99.90
25622;DHT22;13487;39.360;22.962;2023-02-11T01:28:22;3.60;99.90
25622;DHT22;13487;39.360;22.962;2023-02-11T01:30:47;3.60;99.90
25622;DHT22;13487;39.360;22.962;2023-02-11T01:33:13;3.60;99.90
25622;DHT22;13487;39.360;22.962;2023-02-11T01:35:40;3.60;99.90
25622;DHT22;13487;39.360;22.962;2023-02-11T01:38:07;3.60;99.90
25622;DHT22;13487;39.360;22.962;2023-02-11T01:40:34;3.60;99.90
25622;DHT22;13487;39.360;22.962;2023-02-11T01:43:00;3.60;99.90
25622;DHT22;13487;39.360;22.962;2023-02-11T01:48:16;3.60;99.90
25622;DHT22;13487;39.360;22.962;2023-02-11T01:50:43;3.60;99.90
25622;DHT22;13487;39.360;22.962;2023-02-11T01:53:10;3.50;99.90
25622;DHT22;13487;39.360;22.962;2023-02-11T01:55:55;3.50;99.90
25622;DHT22;13487;39.360;22.962;2023-02-11T01:58:42;3.50;99.90
25622;DHT22;13487;39.360;22.962;2023-02-11T02:01:12;3.60;99.90
25622;DHT22;13487;39.360;22.962;2023-02-11T02:03:42;3.60;99.90
25622;DHT22;13487;39.360;22.962;2023-02-11T02:06:17;3.50;99.90
25622;DHT22;13487;39.360;22.962;2023-02-11T02:08:54;3.40;99.90
25622;DHT22;13487;39.360;22.962;2023-02-11T02:11:21;3.20;99.90
25622;DHT22;13487;39.360;22.962;2023-02-11T02:13:47;3.20;99.90
25622;DHT22;13487;39.360;22.962;2023-02-11T02:16:16;3.10;99.90
25622;DHT22;13487;39.360;22.962;2023-02-11T02:38:10;3.10;99.90
25622;DHT22;13487;39.360;22.962;2023-02-11T02:43:25;3.10;99.90
25622;DHT22;13487;39.360;22.962;2023-02-11T02:45:52;3.00;99.90
25622;DHT22;13487;39.360;22.962;2023-02-11T02:48:32;3.00;99.90
25622;DHT22;13487;39.360;22.962;2023-02-11T02:54:22;3.10;99.90
25622;DHT22;13487;39.360;22.962;2023-02-11T03:00:05;3.10;99.90
25622;DHT22;13487;39.360;22.962;2023-02-11T03:07:54;3.20;99.90
25622;DHT22;13487;39.360;22.962;2023-02-11T03:10:45;3.20;99.90
25622;DHT22;13487;39.360;22.962;2023-02-11T03:13:13;3.20;99.90
25622;DHT22;13487;39.360;22.962;2023-02-11T03:15:46;3.30;99.90
25622;DHT22;13487;39.360;22.962;2023-02-11T03:18:16;3.30;99.90
25622;DHT22;13487;39.360;22.962;2023-02-11T03:20:44;3.30;99.90
25622;DHT22;13487;39.360;22.962;2023-02-11T03:23:17;3.40;99.90
25622;DHT22;13487;39.360;22.962;2023-02-11T03:25:54;3.30;99.90
25622;DHT22;13487;39.360;22.962;2023-02-11T03:33:46;3.30;99.90
25622;DHT22;13487;39.360;22.962;2023-02-11T03:36:25;3.40;99.90
25622;DHT22;13487;39.360;22.962;2023-02-11T03:38:55;3.40;99.90
25622;DHT22;13487;39.360;22.962;2023-02-11T03:41:23;3.40;99.90
25622;DHT22;13487;39.360;22.962;2023-02-11T03:43:54;3.40;99.90
25622;DHT22;13487;39.360;22.962;2023-02-11T03:46:25;3.40;99.90
25622;DHT22;13487;39.360;22.962;2023-02-11T03:48:55;3.40;99.90
25622;DHT22;13487;39.360;22.962;2023-02-11T03:51:23;3.50;99.90
25622;DHT22;13487;39.360;22.962;2023-02-11T03:53:53;3.40;99.90
25622;DHT22;13487;39.360;22.962;2023-02-11T03:56:21;3.40;99.90
25622;DHT22;13487;39.360;22.962;2023-02-11T03:58:48;3.40;99.90
25622;DHT22;13487;39.360;22.962;2023-02-11T04:01:15;3.50;99.90
25622;DHT22;13487;39.360;22.962;2023-02-11T04:03:40;3.50;99.90
25622;DHT22;13487;39.360;22.962;2023-02-11T04:06:06;3.40;99.90
25622;DHT22;13487;39.360;22.962;2023-02-11T04:08:32;3.40;99.90
25622;DHT22;13487;39.360;22.962;2023-02-11T04:10:58;3.40;99.90
25622;DHT22;13487;39.360;22.962;2023-02-11T04:13:24;3.40;99.90
25622;DHT22;13487;39.360;22.962;2023-02-11T04:15:50;3.40;99.90
25622;DHT22;13487;39.360;22.962;2023-02-11T04:18:16;3.30;99.90
25622;DHT22;13487;39.360;22.962;2023-02-11T04:20:42;3.30;99.90
25622;DHT22;13487;39.360;22.962;2023-02-11T04:23:08;3.40;99.90
25622;DHT22;13487;39.360;22.962;2023-02-11T04:25:34;3.40;99.90
25622;DHT22;13487;39.360;22.962;2023-02-11T04:28:00;3.40;99.90
25622;DHT22;13487;39.360;22.962;2023-02-11T04:30:26;3.40;99.90
25622;DHT22;13487;39.360;22.962;2023-02-11T04:32:52;3.40;99.90
25622;DHT22;13487;39.360;22.962;2023-02-11T04:35:19;3.40;99.90
25622;DHT22;13487;39.360;22.962;2023-02-11T04:37:45;3.40;99.90
25622;DHT22;13487;39.360;22.962;2023-02-11T04:40:11;3.40;99.90
25622;DHT22;13487;39.360;22.962;2023-02-11T04:42:37;3.50;99.90
25622;DHT22;13487;39.360;22.962;2023-02-11T04:45:03;3.40;99.90
25622;DHT22;13487;39.360;22.962;2023-02-11T04:47:29;3.40;99.90
25622;DHT22;13487;39.360;22.962;2023-02-11T04:49:55;3.30;99.90
25622;DHT22;13487;39.360;22.962;2023-02-11T04:52:20;3.30;99.90
25622;DHT22;13487;39.360;22.962;2023-02-11T04:54:46;3.40;99.90
25622;DHT22;13487;39.360;22.962;2023-02-11T04:57:12;3.30;99.90
25622;DHT22;13487;39.360;22.962;2023-02-11T04:59:38;3.20;99.90
25622;DHT22;13487;39.360;22.962;2023-02-11T05:02:03;3.20;99.90
25622;DHT22;13487;39.360;22.962;2023-02-11T05:04:29;3.30;99.90
25622;DHT22;13487;39.360;22.962;2023-02-11T05:06:55;3.30;99.90
25622;DHT22;13487;39.360;22.962;2023-02-11T05:09:20;3.30;99.90
25622;DHT22;13487;39.360;22.962;2023-02-11T05:11:46;3.40;99.90
25622;DHT22;13487;39.360;22.962;2023-02-11T05:14:12;3.30;99.90
25622;DHT22;13487;39.360;22.962;2023-02-11T05:16:37;3.30;99.90
25622;DHT22;13487;39.360;22.962;2023-02-11T05:19:03;3.30;99.90
25622;DHT22;13487;39.360;22.962;2023-02-11T05:21:29;3.30;99.90
25622;DHT22;13487;39.360;22.962;2023-02-11T05:23:55;3.40;99.90
25622;DHT22;13487;39.360;22.962;2023-02-11T05:26:21;3.30;99.90
25622;DHT22;13487;39.360;22.962;2023-02-11T05:28:46;3.40;99.90
25622;DHT22;13487;39.360;22.962;2023-02-11T05:31:12;3.50;99.90
25622;DHT22;13487;39.360;22.962;2023-02-11T05:33:39;3.40;99.90
25622;DHT22;13487;39.360;22.962;2023-02-11T05:36:08;3.40;99.90
25622;DHT22;13487;39.360;22.962;2023-02-11T05:38:34;3.40;99.90
25622;DHT22;13487;39.360;22.962;2023-02-11T05:41:01;3.40;99.90
25622;DHT22;13487;39.360;22.962;2023-02-11T05:43:27;3.40;99.90
25622;DHT22;13487;39.360;22.962;2023-02-11T05:45:53;3.40;99.90
25622;DHT22;13487;39.360;22.962;2023-02-11T05:48:19;3.40;99.90
25622;DHT22;13487;39.360;22.962;2023-02-11T05:50:45;3.40;99.90
25622;DHT22;13487;39.360;22.962;2023-02-11T05:53:11;3.50;99.90
25622;DHT22;13487;39.360;22.962;2023-02-11T05:55:37;3.40;99.90
25622;DHT22;13487;39.360;22.962;2023-02-11T05:58:03;3.40;99.90
25622;DHT22;13487;39.360;22.962;2023-02-11T06:00:29;3.50;99.90
25622;DHT22;13487;39.360;22.962;2023-02-11T06:02:55;3.50;99.90
25622;DHT22;13487;39.360;22.962;2023-02-11T06:05:20;3.60;99.90
25622;DHT22;13487;39.360;22.962;2023-02-11T06:07:46;3.60;99.90
25622;DHT22;13487;39.360;22.962;2023-02-11T06:10:12;3.70;99.90
25622;DHT22;13487;39.360;22.962;2023-02-11T06:12:38;3.80;99.90
25622;DHT22;13487;39.360;22.962;2023-02-11T06:15:04;3.70;99.90
25622;DHT22;13487;39.360;22.962;2023-02-11T06:17:30;3.60;99.90
25622;DHT22;13487;39.360;22.962;2023-02-11T06:20:01;3.60;99.90
25622;DHT22;13487;39.360;22.962;2023-02-11T06:22:27;3.60;99.90
25622;DHT22;13487;39.360;22.962;2023-02-11T06:24:53;3.60;99.90
25622;DHT22;13487;39.360;22.962;2023-02-11T06:27:19;3.70;99.90
25622;DHT22;13487;39.360;22.962;2023-02-11T06:29:45;3.70;99.90
25622;DHT22;13487;39.360;22.962;2023-02-11T06:32:13;3.70;99.90
25622;DHT22;13487;39.360;22.962;2023-02-11T06:34:39;3.70;99.90
25622;DHT22;13487;39.360;22.962;2023-02-11T06:37:05;3.70;99.90
25622;DHT22;13487;39.360;22.962;2023-02-11T06:39:31;3.80;99.90
25622;DHT22;13487;39.360;22.962;2023-02-11T06:41:57;3.90;99.90
25622;DHT22;13487;39.360;22.962;2023-02-11T06:44:22;4.00;99.90
25622;DHT22;13487;39.360;22.962;2023-02-11T06:46:48;4.00;99.90
25622;DHT22;13487;39.360;22.962;2023-02-11T06:49:14;4.00;99.90
25622;DHT22;13487;39.360;22.962;2023-02-11T06:51:40;4.10;99.90
25622;DHT22;13487;39.360;22.962;2023-02-11T06:54:06;4.10;99.90
25622;DHT22;13487;39.360;22.962;2023-02-11T06:56:32;4.10;99.90
25622;DHT22;13487;39.360;22.962;2023-02-11T06:58:58;4.10;99.90
25622;DHT22;13487;39.360;22.962;2023-02-11T07:01:26;4.00;99.90
25622;DHT22;13487;39.360;22.962;2023-02-11T07:03:52;4.00;99.90
25622;DHT22;13487;39.360;22.962;2023-02-11T07:06:21;4.00;99.90
25622;DHT22;13487;39.360;22.962;2023-02-11T07:08:48;4.00;99.90
25622;DHT22;13487;39.360;22.962;2023-02-11T07:11:15;4.00;99.90
25622;DHT22;13487;39.360;22.962;2023-02-11T07:13:41;4.00;99.90
25622;DHT22;13487;39.360;22.962;2023-02-11T07:16:10;4.10;99.90
25622;DHT22;13487;39.360;22.962;2023-02-11T07:18:36;4.10;99.90
25622;DHT22;13487;39.360;22.962;2023-02-11T07:21:06;4.10;99.90
25622;DHT22;13487;39.360;22.962;2023-02-11T07:23:33;4.10;99.90
25622;DHT22;13487;39.360;22.962;2023-02-11T07:26:04;4.00;99.90
25622;DHT22;13487;39.360;22.962;2023-02-11T07:28:30;4.10;99.90
25622;DHT22;13487;39.360;22.962;2023-02-11T07:30:56;4.10;99.90
25622;DHT22;13487;39.360;22.962;2023-02-11T07:33:22;4.10;99.90
25622;DHT22;13487;39.360;22.962;2023-02-11T07:35:48;4.10;99.90
25622;DHT22;13487;39.360;22.962;2023-02-11T07:38:13;4.10;99.90
25622;DHT22;13487;39.360;22.962;2023-02-11T07:40:39;4.10;99.90
25622;DHT22;13487;39.360;22.962;2023-02-11T07:43:05;4.10;99.90
25622;DHT22;13487;39.360;22.962;2023-02-11T07:45:31;4.20;99.90
25622;DHT22;13487;39.360;22.962;2023-02-11T07:47:57;4.20;99.90
25622;DHT22;13487;39.360;22.962;2023-02-11T07:50:22;4.10;99.90
25622;DHT22;13487;39.360;22.962;2023-02-11T07:52:48;4.10;99.90
25622;DHT22;13487;39.360;22.962;2023-02-11T07:55:14;4.20;99.90
25622;DHT22;13487;39.360;22.962;2023-02-11T07:57:39;4.20;99.90
25622;DHT22;13487;39.360;22.962;2023-02-11T08:00:06;4.20;99.90
25622;DHT22;13487;39.360;22.962;2023-02-11T08:02:32;4.30;99.90
25622;DHT22;13487;39.360;22.962;2023-02-11T08:04:57;4.20;99.90
25622;DHT22;13487;39.360;22.962;2023-02-11T08:07:23;4.20;99.90
25622;DHT22;13487;39.360;22.962;2023-02-11T08:09:49;4.10;99.90
25622;DHT22;13487;39.360;22.962;2023-02-11T08:12:15;4.20;99.90
25622;DHT22;13487;39.360;22.962;2023-02-11T08:14:40;4.30;99.90
25622;DHT22;13487;39.360;22.962;2023-02-11T08:17:06;4.20;99.90
25622;DHT22;13487;39.360;22.962;2023-02-11T08:19:32;4.30;99.90
25622;DHT22;13487;39.360;22.962;2023-02-11T08:21:57;4.40;99.90
25622;DHT22;13487;39.360;22.962;2023-02-11T08:24:25;4.60;99.90
25622;DHT22;13487;39.360;22.962;2023-02-11T08:26:51;4.70;99.90
25622;DHT22;13487;39.360;22.962;2023-02-11T08:29:17;4.80;99.90
25622;DHT22;13487;39.360;22.962;2023-02-11T08:31:44;4.70;99.90
25622;DHT22;13487;39.360;22.962;2023-02-11T08:34:12;4.80;99.90
25622;DHT22;13487;39.360;22.962;2023-02-11T08:36:40;4.90;99.90
25622;DHT22;13487;39.360;22.962;2023-02-11T08:39:19;5.00;99.90
25622;DHT22;13487;39.360;22.962;2023-02-11T08:41:47;5.20;99.90
25622;DHT22;13487;39.360;22.962;2023-02-11T08:44:13;5.20;99.90
25622;DHT22;13487;39.360;22.962;2023-02-11T08:46:39;5.30;99.90
25622;DHT22;13487;39.360;22.962;2023-02-11T08:49:05;5.50;99.90
25622;DHT22;13487;39.360;22.962;2023-02-11T08:51:31;5.70;99.90
25622;DHT22;13487;39.360;22.962;2023-02-11T08:53:57;5.80;99.90
25622;DHT22;13487;39.360;22.962;2023-02-11T08:56:23;5.90;99.90
25622;DHT22;13487;39.360;22.962;2023-02-11T08:58:50;6.10;99.90
25622;DHT22;13487;39.360;22.962;2023-02-11T09:01:21;6.00;99.90
25622;DHT22;13487;39.360;22.962;2023-02-11T09:03:47;6.10;99.90
25622;DHT22;13487;39.360;22.962;2023-02-11T09:06:14;6.20;99.90
25622;DHT22;13487;39.360;22.962;2023-02-11T09:08:44;6.30;99.90
25622;DHT22;13487;39.360;22.962;2023-02-11T09:11:10;6.40;99.90
25622;DHT22;13487;39.360;22.962;2023-02-11T09:13:36;6.60;99.90
25622;DHT22;13487;39.360;22.962;2023-02-11T09:16:03;6.70;99.90
25622;DHT22;13487;39.360;22.962;2023-02-11T09:18:30;6.50;99.90
25622;DHT22;13487;39.360;22.962;2023-02-11T09:21:07;6.50;99.90
25622;DHT22;13487;39.360;22.962;2023-02-11T09:23:34;6.60;99.90
25622;DHT22;13487;39.360;22.962;2023-02-11T09:26:07;6.80;99.90
25622;DHT22;13487;39.360;22.962;2023-02-11T09:28:33;6.80;99.90
25622;DHT22;13487;39.360;22.962;2023-02-11T09:31:05;6.80;99.90
25622;DHT22;13487;39.360;22.962;2023-02-11T09:33:31;6.90;99.90
25622;DHT22;13487;39.360;22.962;2023-02-11T09:36:03;7.10;99.90
25622;DHT22;13487;39.360;22.962;2023-02-11T09:38:29;7.10;99.90
25622;DHT22;13487;39.360;22.962;2023-02-11T09:40:55;7.00;99.90
25622;DHT22;13487;39.360;22.962;2023-02-11T09:43:32;7.00;99.90
25622;DHT22;13487;39.360;22.962;2023-02-11T09:46:01;7.00;99.90
25622;DHT22;13487;39.360;22.962;2023-02-11T09:48:36;7.00;99.90
25622;DHT22;13487;39.360;22.962;2023-02-11T09:51:03;6.90;99.90
25622;DHT22;13487;39.360;22.962;2023-02-11T09:53:38;7.00;99.90
25622;DHT22;13487;39.360;22.962;2023-02-11T09:56:13;7.10;99.90
25622;DHT22;13487;39.360;22.962;2023-02-11T09:58:42;7.20;99.90
25622;DHT22;13487;39.360;22.962;2023-02-11T10:01:29;7.20;99.90
25622;DHT22;13487;39.360;22.962;2023-02-11T10:06:48;7.30;99.90
25622;DHT22;13487;39.360;22.962;2023-02-11T10:09:29;7.30;99.90
25622;DHT22;13487;39.360;22.962;2023-02-11T10:12:01;7.30;99.90
25622;DHT22;13487;39.360;22.962;2023-02-11T10:25:34;7.90;99.90
25622;DHT22;13487;39.360;22.962;2023-02-11T10:28:13;8.00;99.90
25622;DHT22;13487;39.360;22.962;2023-02-11T10:31:01;8.10;99.90
25622;DHT22;13487;39.360;22.962;2023-02-11T10:33:46;8.20;99.90
25622;DHT22;13487;39.360;22.962;2023-02-11T10:36:16;8.10;99.90
25622;DHT22;13487;39.360;22.962;2023-02-11T10:38:42;8.10;99.90
25622;DHT22;13487;39.360;22.962;2023-02-11T10:41:16;8.00;99.90
25622;DHT22;13487;39.360;22.962;2023-02-11T10:43:43;8.10;99.90
25622;DHT22;13487;39.360;22.962;2023-02-11T10:46:18;8.10;99.90
25622;DHT22;13487;39.360;22.962;2023-02-11T10:48:50;8.30;99.90
25622;DHT22;13487;39.360;22.962;2023-02-11T10:51:28;8.30;99.90
25622;DHT22;13487;39.360;22.962;2023-02-11T10:56:31;8.40;99.90
25622;DHT22;13487;39.360;22.962;2023-02-11T10:59:00;8.50;99.90
25622;DHT22;13487;39.360;22.962;2023-02-11T11:01:48;8.40;99.90
25622;DHT22;13487;39.360;22.962;2023-02-11T11:04:38;8.50;99.90
25622;DHT22;13487;39.360;22.962;2023-02-11T11:10:02;8.60;99.90
25622;DHT22;13487;39.360;22.962;2023-02-11T11:17:35;8.60;99.90
25622;DHT22;13487;39.360;22.962;2023-02-11T11:20:23;8.60;99.90
25622;DHT22;13487;39.360;22.962;2023-02-11T11:22:51;8.70;99.90
25622;DHT22;13487;39.360;22.962;2023-02-11T11:25:26;8.70;99.90
25622;DHT22;13487;39.360;22.962;2023-02-11T11:27:55;8.70;99.90
25622;DHT22;13487;39.360;22.962;2023-02-11T11:30:23;8.40;99.90
25622;DHT22;13487;39.360;22.962;2023-02-11T11:32:51;8.40;99.90
25622;DHT22;13487;39.360;22.962;2023-02-11T11:35:24;8.70;99.90
25622;DHT22;13487;39.360;22.962;2023-02-11T11:37:57;8.60;99.90
25622;DHT22;13487;39.360;22.962;2023-02-11T11:40:31;8.70;99.90
25622;DHT22;13487;39.360;22.962;2023-02-11T11:45:51;8.70;99.90
25622;DHT22;13487;39.360;22.962;2023-02-11T11:51:00;8.90;99.90
25622;DHT22;13487;39.360;22.962;2023-02-11T11:53:47;8.90;99.90
25622;DHT22;13487;39.360;22.962;2023-02-11T11:58:43;8.80;99.90
25622;DHT22;13487;39.360;22.962;2023-02-11T12:17:40;9.00;99.60
25622;DHT22;13487;39.360;22.962;2023-02-11T12:26:14;9.00;99.00
25622;DHT22;13487;39.360;22.962;2023-02-11T12:28:50;8.80;99.20
25622;DHT22;13487;39.360;22.962;2023-02-11T12:34:09;8.90;99.10
25622;DHT22;13487;39.360;22.962;2023-02-11T12:39:42;8.80;99.30
25622;DHT22;13487;39.360;22.962;2023-02-11T12:55:47;8.80;98.10
25622;DHT22;13487;39.360;22.962;2023-02-11T12:58:20;8.80;98.50
25622;DHT22;13487;39.360;22.962;2023-02-11T13:00:54;8.70;98.90
25622;DHT22;13487;39.360;22.962;2023-02-11T13:03:27;8.80;99.00
25622;DHT22;13487;39.360;22.962;2023-02-11T13:06:02;9.00;99.00
25622;DHT22;13487;39.360;22.962;2023-02-11T13:08:36;8.80;98.70
25622;DHT22;13487;39.360;22.962;2023-02-11T13:11:34;8.90;98.80
25622;DHT22;13487;39.360;22.962;2023-02-11T13:16:35;8.90;98.80
25622;DHT22;13487;39.360;22.962;2023-02-11T13:19:09;8.80;97.80
25622;DHT22;13487;39.360;22.962;2023-02-11T13:27:23;9.00;97.40
25622;DHT22;13487;39.360;22.962;2023-02-11T13:35:27;8.90;97.00
25622;DHT22;13487;39.360;22.962;2023-02-11T13:37:55;8.90;96.90
25622;DHT22;13487;39.360;22.962;2023-02-11T13:42:54;8.90;97.10
25622;DHT22;13487;39.360;22.962;2023-02-11T13:45:47;9.00;97.40
25622;DHT22;13487;39.360;22.962;2023-02-11T13:50:47;8.90;96.90
25622;DHT22;13487;39.360;22.962;2023-02-11T13:53:15;8.90;96.70
25622;DHT22;13487;39.360;22.962;2023-02-11T13:55:46;9.00;96.40
25622;DHT22;13487;39.360;22.962;2023-02-11T14:09:09;9.00;95.50
25622;DHT22;13487;39.360;22.962;2023-02-11T14:11:53;8.90;95.80
25622;DHT22;13487;39.360;22.962;2023-02-11T14:15:09;8.70;95.80
25622;DHT22;13487;39.360;22.962;2023-02-11T14:17:41;8.70;95.90
25622;DHT22;13487;39.360;22.962;2023-02-11T14:20:33;8.90;96.20
25622;DHT22;13487;39.360;22.962;2023-02-11T14:23:00;9.00;95.90
25622;DHT22;13487;39.360;22.962;2023-02-11T14:25:26;9.10;95.70
25622;DHT22;13487;39.360;22.962;2023-02-11T14:28:00;8.90;96.10
25622;DHT22;13487;39.360;22.962;2023-02-11T14:41:38;8.80;96.40
25622;DHT22;13487;39.360;22.962;2023-02-11T14:44:14;8.90;96.70
25622;DHT22;13487;39.360;22.962;2023-02-11T14:46:46;8.90;97.00
25622;DHT22;13487;39.360;22.962;2023-02-11T14:49:27;8.80;97.30
25622;DHT22;13487;39.360;22.962;2023-02-11T14:51:57;8.80;96.90
25622;DHT22;13487;39.360;22.962;2023-02-11T14:54:26;8.80;97.10
25622;DHT22;13487;39.360;22.962;2023-02-11T14:57:10;8.70;97.40
25622;DHT22;13487;39.360;22.962;2023-02-11T14:59:37;8.60;97.30
25622;DHT22;13487;39.360;22.962;2023-02-11T15:02:19;8.60;97.60
25622;DHT22;13487;39.360;22.962;2023-02-11T15:04:45;8.60;97.60
25622;DHT22;13487;39.360;22.962;2023-02-11T15:07:13;8.70;97.90
25622;DHT22;13487;39.360;22.962;2023-02-11T15:09:51;8.60;97.50
25622;DHT22;13487;39.360;22.962;2023-02-11T15:12:25;8.60;98.00
25622;DHT22;13487;39.360;22.962;2023-02-11T15:14:55;8.60;97.90
25622;DHT22;13487;39.360;22.962;2023-02-11T15:17:24;8.50;97.70
25622;DHT22;13487;39.360;22.962;2023-02-11T15:19:53;8.60;98.00
25622;DHT22;13487;39.360;22.962;2023-02-11T15:22:28;8.50;98.00
25622;DHT22;13487;39.360;22.962;2023-02-11T15:25:17;8.50;98.20
25622;DHT22;13487;39.360;22.962;2023-02-11T15:27:52;8.50;98.50
25622;DHT22;13487;39.360;22.962;2023-02-11T15:32:50;8.40;98.90
25622;DHT22;13487;39.360;22.962;2023-02-11T15:35:17;8.40;98.70
25622;DHT22;13487;39.360;22.962;2023-02-11T15:37:43;8.40;98.90
25622;DHT22;13487;39.360;22.962;2023-02-11T15:40:15;8.30;99.10
25622;DHT22;13487;39.360;22.962;2023-02-11T15:43:00;8.30;98.80
25622;DHT22;13487;39.360;22.962;2023-02-11T15:48:12;8.20;98.70
25622;DHT22;13487;39.360;22.962;2023-02-11T15:50:39;8.20;99.00
25622;DHT22;13487;39.360;22.962;2023-02-11T15:55:47;7.90;99.90
25622;DHT22;13487;39.360;22.962;2023-02-11T15:58:14;7.80;99.90
25622;DHT22;13487;39.360;22.962;2023-02-11T16:00:48;7.60;99.90
25622;DHT22;13487;39.360;22.962;2023-02-11T16:03:23;7.60;99.90
25622;DHT22;13487;39.360;22.962;2023-02-11T16:05:50;7.40;99.90
25622;DHT22;13487;39.360;22.962;2023-02-11T16:08:22;7.40;99.90
25622;DHT22;13487;39.360;22.962;2023-02-11T16:10:57;7.30;99.90
25622;DHT22;13487;39.360;22.962;2023-02-11T16:13:27;7.20;99.90
25622;DHT22;13487;39.360;22.962;2023-02-11T16:15:58;7.30;99.90
25622;DHT22;13487;39.360;22.962;2023-02-11T16:18:36;7.30;99.90
25622;DHT22;13487;39.360;22.962;2023-02-11T16:21:05;7.10;99.90
25622;DHT22;13487;39.360;22.962;2023-02-11T16:23:34;7.10;99.90
25622;DHT22;13487;39.360;22.962;2023-02-11T16:26:04;7.10;99.90
25622;DHT22;13487;39.360;22.962;2023-02-11T16:28:33;7.00;99.90
25622;DHT22;13487;39.360;22.962;2023-02-11T16:30:59;7.00;99.90
25622;DHT22;13487;39.360;22.962;2023-02-11T16:33:25;7.00;99.90
25622;DHT22;13487;39.360;22.962;2023-02-11T16:35:51;7.00;99.90
25622;DHT22;13487;39.360;22.962;2023-02-11T16:38:17;7.00;99.90
25622;DHT22;13487;39.360;22.962;2023-02-11T16:40:43;7.00;99.90
25622;DHT22;13487;39.360;22.962;2023-02-11T16:43:11;6.90;99.90
25622;DHT22;13487;39.360;22.962;2023-02-11T16:45:37;6.90;99.90
25622;DHT22;13487;39.360;22.962;2023-02-11T16:48:07;6.90;99.90
25622;DHT22;13487;39.360;22.962;2023-02-11T16:50:34;6.80;99.90
25622;DHT22;13487;39.360;22.962;2023-02-11T16:53:00;6.80;99.90
25622;DHT22;13487;39.360;22.962;2023-02-11T16:55:32;6.80;99.90
25622;DHT22;13487;39.360;22.962;2023-02-11T16:57:58;6.70;99.90
25622;DHT22;13487;39.360;22.962;2023-02-11T17:00:24;6.70;99.90
25622;DHT22;13487;39.360;22.962;2023-02-11T17:02:49;6.60;99.90
25622;DHT22;13487;39.360;22.962;2023-02-11T17:05:20;6.40;99.90
25622;DHT22;13487;39.360;22.962;2023-02-11T17:07:48;6.50;99.90
25622;DHT22;13487;39.360;22.962;2023-02-11T17:10:16;6.40;99.90
25622;DHT22;13487;39.360;22.962;2023-02-11T17:12:42;6.70;99.90
25622;DHT22;13487;39.360;22.962;2023-02-11T17:15:08;6.80;99.90
25622;DHT22;13487;39.360;22.962;2023-02-11T17:17:34;6.70;99.90
25622;DHT22;13487;39.360;22.962;2023-02-11T17:20:00;6.50;99.90
25622;DHT22;13487;39.360;22.962;2023-02-11T17:22:26;6.20;99.90
25622;DHT22;13487;39.360;22.962;2023-02-11T17:24:51;6.10;99.90
25622;DHT22;13487;39.360;22.962;2023-02-11T17:27:20;5.90;99.90
25622;DHT22;13487;39.360;22.962;2023-02-11T17:29:46;5.90;99.90
25622;DHT22;13487;39.360;22.962;2023-02-11T17:32:12;5.90;99.90
25622;DHT22;13487;39.360;22.962;2023-02-11T17:34:38;5.80;99.90
25622;DHT22;13487;39.360;22.962;2023-02-11T17:37:03;5.80;99.90
25622;DHT22;13487;39.360;22.962;2023-02-11T17:39:34;5.80;99.90
25622;DHT22;13487;39.360;22.962;2023-02-11T17:42:00;5.70;99.90
25622;DHT22;13487;39.360;22.962;2023-02-11T17:44:26;5.60;99.90
25622;DHT22;13487;39.360;22.962;2023-02-11T17:46:52;5.70;99.90
25622;DHT22;13487;39.360;22.962;2023-02-11T17:49:18;5.50;99.90
25622;DHT22;13487;39.360;22.962;2023-02-11T17:51:45;5.50;99.90
25622;DHT22;13487;39.360;22.962;2023-02-11T17:54:13;5.30;99.90
25622;DHT22;13487;39.360;22.962;2023-02-11T17:56:39;5.40;99.90
25622;DHT22;13487;39.360;22.962;2023-02-11T17:59:06;5.40;99.90
25622;DHT22;13487;39.360;22.962;2023-02-11T18:01:34;5.30;99.90
25622;DHT22;13487;39.360;22.962;2023-02-11T18:04:01;5.20;99.90
25622;DHT22;13487;39.360;22.962;2023-02-11T18:06:27;5.30;99.90
25622;DHT22;13487;39.360;22.962;2023-02-11T18:08:56;5.60;99.90
25622;DHT22;13487;39.360;22.962;2023-02-11T18:11:24;5.90;99.90
25622;DHT22;13487;39.360;22.962;2023-02-11T18:13:50;6.00;99.90
25622;DHT22;13487;39.360;22.962;2023-02-11T18:16:22;6.00;99.90
25622;DHT22;13487;39.360;22.962;2023-02-11T18:18:49;6.20;99.90
25622;DHT22;13487;39.360;22.962;2023-02-11T18:21:17;6.10;99.90
25622;DHT22;13487;39.360;22.962;2023-02-11T18:23:43;5.80;99.90
25622;DHT22;13487;39.360;22.962;2023-02-11T18:26:11;5.60;99.90